Time;durP1;ratioP1;P1;durP2;ratioP2;P2;SDS_P1;SDS_P2;PMS_P1;PMS_P2;Temp;Humidity;BMP_temperature;BMP_pressure;BME280_temperature;BME280_humidity;BME280_pressure;Samples;Min_cycle;Max_cycle;Signal;HPM_P1;HPM_P2
2021/07/22 00:01:33;;;;;;;16.20;10.75;;;19.40;99.90;;;;;;5064509;28;20178;-81
2021/07/22 00:04:00;;;;;;;11.25;10.30;;;19.40;99.90;;;;;;5094975;28;20191;-81
2021/07/22 00:06:26;;;;;;;11.70;10.40;;;19.30;99.90;;;;;;5078024;28;20227;-81
2021/07/22 00:08:51;;;;;;;16.90;11.88;;;19.30;99.90;;;;;;5096243;28;20261;-81
2021/07/22 00:11:17;;;;;;;14.00;11.02;;;19.30;99.90;;;;;;5061004;28;20608;-81
2021/07/22 00:13:43;;;;;;;13.82;11.35;;;19.30;99.90;;;;;;5077195;28;20174;-80
2021/07/22 00:16:14;;;;;;;19.48;10.98;;;19.40;99.90;;;;;;5060971;28;20178;-81
2021/07/22 00:18:40;;;;;;;15.00;10.65;;;19.40;99.90;;;;;;5095621;28;20168;-81
2021/07/22 00:21:09;;;;;;;14.00;11.75;;;19.40;99.90;;;;;;5080936;28;20178;-81
2021/07/22 00:23:34;;;;;;;22.77;11.25;;;19.30;99.90;;;;;;5042579;28;20183;-81
2021/07/22 00:26:04;;;;;;;17.17;10.95;;;19.30;99.90;;;;;;5057556;28;20902;-80
2021/07/22 00:28:30;;;;;;;13.90;11.13;;;19.30;99.90;;;;;;5057301;28;20166;-81
2021/07/22 00:30:56;;;;;;;17.25;11.07;;;19.20;99.90;;;;;;5090421;28;20217;-80
2021/07/22 00:33:22;;;;;;;14.82;11.93;;;19.20;99.90;;;;;;5077250;28;20254;-80
2021/07/22 00:35:48;;;;;;;16.42;11.13;;;19.30;99.90;;;;;;5095383;28;20307;-81
2021/07/22 00:38:14;;;;;;;14.80;11.15;;;19.20;99.90;;;;;;5061654;28;20171;-80
2021/07/22 00:40:44;;;;;;;17.45;11.40;;;19.10;99.90;;;;;;5040779;28;20202;-80
2021/07/22 00:43:10;;;;;;;15.48;10.43;;;19.10;99.90;;;;;;5061443;28;20189;-80
2021/07/22 00:45:35;;;;;;;13.38;12.00;;;19.10;99.90;;;;;;5076818;28;20620;-82
2021/07/22 00:48:01;;;;;;;19.42;11.20;;;19.10;99.90;;;;;;5043567;28;20177;-80
2021/07/22 00:50:28;;;;;;;12.10;10.90;;;19.10;99.90;;;;;;5077080;28;20198;-81
2021/07/22 00:52:54;;;;;;;12.25;11.13;;;19.00;99.90;;;;;;5095026;28;20181;-81
2021/07/22 00:55:24;;;;;;;18.80;10.98;;;19.00;99.90;;;;;;5094685;28;20538;-80
2021/07/22 00:57:51;;;;;;;11.20;10.10;;;19.00;99.90;;;;;;5076870;28;20289;-80
2021/07/22 01:00:16;;;;;;;17.45;10.98;;;18.90;99.90;;;;;;5076901;28;20174;-81
2021/07/22 01:02:42;;;;;;;12.07;10.93;;;18.80;99.90;;;;;;5041983;28;20174;-81
2021/07/22 01:05:09;;;;;;;11.38;10.23;;;18.90;99.90;;;;;;5056599;28;20232;-81
2021/07/22 01:07:35;;;;;;;13.68;10.82;;;18.90;99.90;;;;;;5057519;28;20535;-80
2021/07/22 01:10:01;;;;;;;14.52;11.63;;;18.90;99.90;;;;;;5074172;28;20198;-81
2021/07/22 01:12:27;;;;;;;14.80;11.68;;;18.70;99.90;;;;;;5056940;28;20186;-81
2021/07/22 01:14:52;;;;;;;15.88;12.93;;;18.80;99.90;;;;;;5070550;28;20224;-81
2021/07/22 01:17:31;;;;;;;17.08;12.75;;;18.80;99.90;;;;;;5094139;28;20196;-81
2021/07/22 01:19:56;;;;;;;15.57;12.00;;;18.70;99.90;;;;;;5076416;28;20218;-81
2021/07/22 01:22:22;;;;;;;15.85;11.82;;;18.70;99.90;;;;;;5076466;28;20256;-81
2021/07/22 01:24:47;;;;;;;20.58;13.23;;;18.60;99.90;;;;;;5076175;28;20170;-81
2021/07/22 01:27:13;;;;;;;20.80;14.43;;;18.60;99.90;;;;;;5059122;28;20182;-82
2021/07/22 01:29:39;;;;;;;16.02;11.60;;;18.60;99.90;;;;;;5042737;28;20212;-81
2021/07/22 01:32:06;;;;;;;19.92;13.70;;;18.60;99.90;;;;;;5085672;28;20633;-81
2021/07/22 01:34:32;;;;;;;18.20;14.30;;;18.60;99.90;;;;;;5039436;28;20182;-81
2021/07/22 01:36:57;;;;;;;18.08;12.85;;;18.70;99.90;;;;;;5039402;28;20183;-81
2021/07/22 01:39:23;;;;;;;16.38;12.60;;;18.70;99.90;;;;;;5055948;28;20224;-81
2021/07/22 01:41:49;;;;;;;22.27;13.20;;;18.60;99.90;;;;;;5055893;28;20253;-81
2021/07/22 01:44:16;;;;;;;18.13;13.18;;;18.50;99.90;;;;;;5078710;28;20169;-81
2021/07/22 01:46:42;;;;;;;16.80;13.45;;;18.60;99.90;;;;;;5076335;28;20193;-81
2021/07/22 01:49:07;;;;;;;23.92;14.27;;;18.60;99.90;;;;;;5039227;28;20651;-81
2021/07/22 01:51:33;;;;;;;16.48;12.95;;;18.50;99.90;;;;;;5055782;28;20207;-81
2021/07/22 01:53:59;;;;;;;18.38;13.30;;;18.50;99.90;;;;;;5055818;28;20179;-81
2021/07/22 01:56:25;;;;;;;21.13;14.98;;;18.50;99.90;;;;;;5055840;28;20174;-80
2021/07/22 01:58:50;;;;;;;24.75;15.70;;;18.50;99.90;;;;;;5073770;28;20240;-81
2021/07/22 02:01:16;;;;;;;28.98;16.17;;;18.50;99.90;;;;;;5090552;28;20177;-81
2021/07/22 02:03:41;;;;;;;24.02;16.27;;;18.50;99.90;;;;;;5060905;28;20197;-80
2021/07/22 02:06:08;;;;;;;20.15;14.77;;;18.50;99.90;;;;;;5058348;28;20223;-81
2021/07/22 02:08:35;;;;;;;19.42;15.68;;;18.50;99.90;;;;;;5093132;28;20170;-80
2021/07/22 02:11:05;;;;;;;25.13;15.82;;;18.50;99.90;;;;;;5058795;28;20214;-81
2021/07/22 02:13:31;;;;;;;23.70;15.85;;;18.50;99.90;;;;;;5075931;28;20166;-81
2021/07/22 02:15:57;;;;;;;36.30;20.40;;;18.50;99.90;;;;;;5079215;28;20171;-81
2021/07/22 02:18:23;;;;;;;37.42;21.90;;;18.50;99.90;;;;;;5047810;28;20181;-81
2021/07/22 02:20:49;;;;;;;38.38;22.67;;;18.50;99.90;;;;;;5038808;28;20183;-81
2021/07/22 02:23:15;;;;;;;45.70;25.05;;;18.40;99.90;;;;;;5072990;28;20619;-81
2021/07/22 02:25:41;;;;;;;45.15;25.55;;;18.30;99.90;;;;;;5073341;28;20177;-81
2021/07/22 02:28:07;;;;;;;45.58;26.25;;;18.40;99.90;;;;;;5038872;28;20173;-80
2021/07/22 02:30:33;;;;;;;37.65;22.27;;;18.40;99.90;;;;;;5038826;28;20198;-81
2021/07/22 02:32:59;;;;;;;27.35;17.65;;;18.40;99.90;;;;;;5036659;28;20178;-81
2021/07/22 02:35:25;;;;;;;23.42;16.48;;;18.30;99.90;;;;;;5093455;28;20690;-81
2021/07/22 02:37:51;;;;;;;21.67;14.35;;;18.30;99.90;;;;;;5075022;28;20266;-80
2021/07/22 02:40:17;;;;;;;24.13;14.90;;;18.30;99.90;;;;;;5093472;28;20181;-80
2021/07/22 02:42:42;;;;;;;30.80;14.93;;;18.20;99.90;;;;;;5075250;28;20263;-80
2021/07/22 02:45:09;;;;;;;21.08;15.68;;;18.10;99.90;;;;;;5059572;28;20221;-83
2021/07/22 02:47:35;;;;;;;18.33;13.93;;;18.10;99.90;;;;;;5072806;28;20173;-81
2021/07/22 02:50:00;;;;;;;30.38;19.55;;;18.10;99.90;;;;;;5038698;28;20289;-81
2021/07/22 02:52:26;;;;;;;41.28;25.83;;;18.10;99.90;;;;;;5072974;28;20174;-81
2021/07/22 02:54:51;;;;;;;44.45;26.13;;;18.00;99.90;;;;;;5054843;28;20167;-81
2021/07/22 02:57:17;;;;;;;45.78;26.25;;;18.00;99.90;;;;;;5038441;28;20175;-81
2021/07/22 02:59:43;;;;;;;47.08;26.95;;;17.90;99.90;;;;;;5032496;28;20181;-81
2021/07/22 03:02:08;;;;;;;41.38;23.67;;;17.90;99.90;;;;;;5041586;28;20204;-83
2021/07/22 03:04:34;;;;;;;36.85;22.73;;;17.80;99.90;;;;;;5058541;28;20166;-81
2021/07/22 03:07:00;;;;;;;40.53;20.17;;;17.90;99.90;;;;;;5058546;28;20658;-81
2021/07/22 03:09:25;;;;;;;24.35;16.48;;;17.80;99.90;;;;;;5075138;28;20246;-81
2021/07/22 03:11:51;;;;;;;19.95;13.65;;;17.90;99.90;;;;;;5062763;28;20578;-81
2021/07/22 03:14:17;;;;;;;18.17;12.25;;;17.80;99.90;;;;;;5054960;28;20182;-81
2021/07/22 03:16:42;;;;;;;15.05;12.43;;;17.80;99.90;;;;;;5073167;28;20178;-81
2021/07/22 03:19:08;;;;;;;15.73;13.25;;;17.70;99.90;;;;;;5040919;28;20182;-80
2021/07/22 03:21:33;;;;;;;16.25;13.07;;;17.80;99.90;;;;;;5076966;28;20178;-81
2021/07/22 03:24:00;;;;;;;19.00;14.80;;;17.90;99.90;;;;;;5058725;28;20175;-81
2021/07/22 03:26:26;;;;;;;19.10;14.38;;;17.80;99.90;;;;;;5042051;28;20174;-81
2021/07/22 03:28:51;;;;;;;20.27;14.98;;;17.80;99.90;;;;;;5041913;28;20173;-81
2021/07/22 03:31:17;;;;;;;29.48;18.17;;;17.80;99.90;;;;;;5058346;28;20207;-81
2021/07/22 03:33:42;;;;;;;33.22;18.17;;;17.80;99.90;;;;;;5077998;28;20178;-81
2021/07/22 03:36:08;;;;;;;32.60;19.83;;;17.80;99.90;;;;;;5044850;28;20551;-81
2021/07/22 03:38:34;;;;;;;45.60;21.35;;;17.80;99.90;;;;;;5096641;28;20209;-82
2021/07/22 03:40:59;;;;;;;43.78;22.42;;;17.80;99.90;;;;;;5091810;28;20261;-81
2021/07/22 03:43:25;;;;;;;28.33;18.73;;;17.80;99.90;;;;;;5058429;28;20170;-81
2021/07/22 03:46:00;;;;;;;31.95;21.58;;;17.80;99.90;;;;;;5076098;28;20175;-82
2021/07/22 03:48:26;;;;;;;41.42;22.80;;;17.90;99.90;;;;;;5075921;28;20162;-81
2021/07/22 03:50:51;;;;;;;41.75;23.27;;;17.90;99.90;;;;;;5058192;28;20320;-82
2021/07/22 03:53:17;;;;;;;35.92;23.20;;;17.80;99.90;;;;;;5076045;28;20217;-81
2021/07/22 03:55:43;;;;;;;47.70;24.20;;;17.80;99.90;;;;;;5041538;28;20642;-82
2021/07/22 03:58:09;;;;;;;44.28;25.27;;;17.70;99.90;;;;;;5075627;28;20187;-82
2021/07/22 04:00:34;;;;;;;54.53;23.73;;;17.80;99.90;;;;;;5041205;28;20179;-82
2021/07/22 04:03:07;;;;;;;36.90;21.55;;;17.80;99.90;;;;;;5088950;28;20170;-81
2021/07/22 04:05:32;;;;;;;43.58;23.85;;;17.80;99.90;;;;;;5095675;28;20174;-81
2021/07/22 04:07:59;;;;;;;37.50;22.42;;;17.90;99.90;;;;;;5091533;28;20185;-81
2021/07/22 04:10:26;;;;;;;34.75;22.30;;;17.90;99.90;;;;;;5075581;28;20199;-82
2021/07/22 04:13:02;;;;;;;39.80;23.45;;;17.90;99.90;;;;;;5076787;28;20256;-80
2021/07/22 04:15:29;;;;;;;38.70;21.33;;;18.00;99.90;;;;;;5077653;28;20192;-81
2021/07/22 04:17:55;;;;;;;36.38;21.58;;;18.00;99.90;;;;;;5077620;28;20174;-81
2021/07/22 04:20:22;;;;;;;39.40;19.15;;;18.00;99.90;;;;;;5095587;28;20178;-81
2021/07/22 04:22:48;;;;;;;32.55;18.27;;;18.00;99.90;;;;;;5095666;28;20624;-82
2021/07/22 04:25:15;;;;;;;35.10;17.40;;;18.00;99.90;;;;;;5060883;28;20572;-82
2021/07/22 04:27:40;;;;;;;30.52;18.38;;;18.10;99.90;;;;;;5077614;28;20174;-82
2021/07/22 04:30:07;;;;;;;30.55;16.98;;;18.10;99.90;;;;;;5076446;28;20202;-82
2021/07/22 04:32:33;;;;;;;33.20;18.48;;;18.10;99.90;;;;;;5052313;28;20532;-82
2021/07/22 04:34:58;;;;;;;29.92;19.27;;;18.20;99.90;;;;;;5057132;28;20177;-82
2021/07/22 04:37:24;;;;;;;27.88;19.40;;;18.30;99.90;;;;;;5040639;28;20170;-84
2021/07/22 04:39:49;;;;;;;36.58;18.02;;;18.30;99.90;;;;;;5075124;28;20534;-82
2021/07/22 04:42:15;;;;;;;27.90;17.92;;;18.40;99.90;;;;;;5057435;28;20209;-82
2021/07/22 04:44:40;;;;;;;24.95;17.85;;;18.40;99.90;;;;;;5083808;28;20205;-82
2021/07/22 04:47:06;;;;;;;24.77;15.32;;;18.50;99.90;;;;;;5095254;28;20170;-82
2021/07/22 04:49:32;;;;;;;26.83;16.50;;;18.60;99.90;;;;;;5076959;28;20592;-82
2021/07/22 04:51:58;;;;;;;19.02;14.77;;;18.60;99.90;;;;;;5076836;28;20178;-81
2021/07/22 04:54:24;;;;;;;14.98;12.30;;;18.70;99.90;;;;;;5077164;28;20174;-82
2021/07/22 04:56:49;;;;;;;21.63;13.38;;;18.60;99.90;;;;;;5077031;28;20572;-82
2021/07/22 04:59:15;;;;;;;14.15;11.52;;;18.50;99.90;;;;;;5094811;28;20186;-82
2021/07/22 05:01:41;;;;;;;20.25;12.25;;;18.60;99.90;;;;;;5074260;28;20180;-82
2021/07/22 05:04:07;;;;;;;20.00;14.00;;;18.60;99.90;;;;;;5074327;28;20626;-82
2021/07/22 05:06:33;;;;;;;27.55;14.65;;;18.60;99.90;;;;;;5056544;28;20175;-81
2021/07/22 05:09:00;;;;;;;20.40;14.63;;;18.80;99.90;;;;;;5056276;28;20175;-80
2021/07/22 05:11:26;;;;;;;14.95;12.05;;;18.90;99.90;;;;;;5065863;28;20537;-82
2021/07/22 05:13:51;;;;;;;15.95;13.32;;;19.10;99.90;;;;;;5076780;28;20177;-82
2021/07/22 05:16:17;;;;;;;23.83;15.63;;;19.10;99.90;;;;;;5076534;28;20178;-82
2021/07/22 05:18:42;;;;;;;31.85;17.73;;;19.30;99.90;;;;;;5094570;28;20237;-82
2021/07/22 05:21:08;;;;;;;38.08;20.65;;;19.50;99.90;;;;;;5094569;28;20632;-82
2021/07/22 05:23:34;;;;;;;29.75;17.88;;;19.60;99.90;;;;;;5059943;28;20528;-82
2021/07/22 05:26:10;;;;;;;30.00;19.30;;;19.80;99.90;;;;;;5059444;28;20170;-82
2021/07/22 05:28:36;;;;;;;30.23;17.55;;;20.10;99.90;;;;;;5076247;28;20170;-82
2021/07/22 05:31:10;;;;;;;32.38;18.67;;;20.30;99.90;;;;;;5076040;28;20671;-83
2021/07/22 05:33:37;;;;;;;31.95;21.02;;;20.40;99.90;;;;;;5093022;28;20220;-82
2021/07/22 05:36:04;;;;;;;31.33;19.92;;;20.60;99.90;;;;;;5094582;28;20220;-82
2021/07/22 05:38:31;;;;;;;31.40;18.60;;;20.70;99.90;;;;;;5075943;28;20174;-82
2021/07/22 05:41:03;;;;;;;28.23;18.80;;;20.90;99.90;;;;;;5067664;28;20185;-82
2021/07/22 05:43:29;;;;;;;31.75;19.30;;;21.10;99.90;;;;;;5057997;28;20223;-82
2021/07/22 05:45:55;;;;;;;28.27;18.70;;;21.40;99.90;;;;;;5094258;28;20213;-82
2021/07/22 05:48:21;;;;;;;29.08;17.42;;;21.90;99.90;;;;;;5075917;28;20202;-82
2021/07/22 05:50:49;;;;;;;27.58;17.00;;;22.50;99.90;;;;;;5094277;28;20330;-82
2021/07/22 05:53:15;;;;;;;28.63;16.73;;;23.10;99.90;;;;;;5093690;28;20599;-81
2021/07/22 05:55:40;;;;;;;23.52;17.65;;;23.40;99.90;;;;;;5077187;28;20259;-82
2021/07/22 05:58:06;;;;;;;31.10;19.98;;;23.60;99.90;;;;;;5084617;28;20635;-82
2021/07/22 06:00:31;;;;;;;30.58;17.67;;;23.60;99.90;;;;;;5094249;28;20624;-82
2021/07/22 06:02:57;;;;;;;24.83;16.25;;;23.90;99.90;;;;;;5081567;28;20187;-82
2021/07/22 06:05:23;;;;;;;25.33;16.80;;;25.00;99.90;;;;;;5039023;28;20171;-82
2021/07/22 06:07:49;;;;;;;27.25;16.83;;;26.10;99.90;;;;;;5055611;28;20554;-82
2021/07/22 06:10:15;;;;;;;31.00;18.63;;;27.40;99.90;;;;;;5040220;28;20308;-82
2021/07/22 06:12:41;;;;;;;27.50;17.67;;;28.60;99.90;;;;;;5075795;28;20627;-82
2021/07/22 06:15:08;;;;;;;24.25;18.55;;;29.60;99.90;;;;;;5093773;28;20166;-83
2021/07/22 06:17:38;;;;;;;28.67;18.50;;;30.50;99.90;;;;;;5075248;28;20197;-82
2021/07/22 06:20:05;;;;;;;36.92;20.15;;;31.20;99.90;;;;;;5093662;28;20176;-85
2021/07/22 06:22:31;;;;;;;31.38;19.30;;;32.00;99.90;;;;;;5093179;28;20158;-82
2021/07/22 06:24:57;;;;;;;31.02;20.63;;;32.60;99.90;;;;;;5058833;28;20200;-82
2021/07/22 06:27:23;;;;;;;39.15;25.88;;;33.40;99.90;;;;;;5075559;28;20257;-83
2021/07/22 06:29:49;;;;;;;50.17;28.85;;;34.20;99.90;;;;;;5093492;28;20594;-83
2021/07/22 06:32:15;;;;;;;41.00;28.38;;;34.60;99.90;;;;;;5075068;28;20654;-83
2021/07/22 06:34:40;;;;;;;43.55;27.95;;;35.20;99.90;;;;;;5093420;28;20254;-84
2021/07/22 06:37:06;;;;;;;44.88;28.95;;;35.90;99.90;;;;;;5075037;28;20205;-82
2021/07/22 06:39:32;;;;;;;42.50;27.73;;;36.60;99.90;;;;;;5093495;28;20166;-83
2021/07/22 06:41:59;;;;;;;46.83;26.70;;;37.20;99.40;;;;;;5056741;28;20180;-83
2021/07/22 06:44:27;;;;;;;44.38;28.73;;;37.40;97.90;;;;;;5076006;28;20234;-82
2021/07/22 06:46:52;;;;;;;39.78;27.55;;;37.10;96.40;;;;;;5085150;28;20253;-84
2021/07/22 06:49:18;;;;;;;40.40;27.42;;;37.30;95.80;;;;;;5054947;28;20275;-80
2021/07/22 06:51:43;;;;;;;49.55;29.75;;;37.60;95.40;;;;;;5038620;28;20206;-82
2021/07/22 06:54:10;;;;;;;42.38;26.73;;;37.60;95.00;;;;;;5062415;28;20709;-82
2021/07/22 06:56:35;;;;;;;44.53;26.38;;;37.50;95.20;;;;;;5033229;28;20539;-80
2021/07/22 06:59:01;;;;;;;49.80;26.95;;;37.50;95.00;;;;;;5077509;28;20277;-83
2021/07/22 07:01:27;;;;;;;37.00;26.57;;;37.80;93.50;;;;;;5058936;28;20446;-82
2021/07/22 07:03:52;;;;;;;37.38;26.00;;;37.30;94.00;;;;;;5075555;28;20174;-83
2021/07/22 07:06:18;;;;;;;38.78;27.05;;;36.70;94.20;;;;;;5067762;28;20540;-83
2021/07/22 07:08:44;;;;;;;36.53;25.40;;;35.80;94.80;;;;;;5078832;28;20173;-83
2021/07/22 07:11:09;;;;;;;41.17;27.55;;;35.90;95.50;;;;;;5079038;28;20781;-81
2021/07/22 07:13:35;;;;;;;30.77;21.55;;;37.00;94.70;;;;;;5096682;28;20170;-84
2021/07/22 07:16:07;;;;;;;45.17;26.48;;;38.00;93.60;;;;;;5078747;28;20174;-83
2021/07/22 07:18:33;;;;;;;41.10;26.10;;;38.90;92.20;;;;;;5096443;28;20166;-84
2021/07/22 07:21:05;;;;;;;40.10;26.42;;;39.10;91.80;;;;;;5096902;28;20173;-83
2021/07/22 07:23:32;;;;;;;42.10;27.55;;;39.80;90.30;;;;;;5077869;28;20211;-83
2021/07/22 07:25:58;;;;;;;36.33;25.08;;;40.10;88.40;;;;;;5076880;28;20174;-83
2021/07/22 07:28:24;;;;;;;33.72;24.95;;;40.20;87.30;;;;;;5058737;28;20166;-83
2021/07/22 07:30:49;;;;;;;36.85;25.83;;;39.30;88.40;;;;;;5076121;28;20348;-84
2021/07/22 07:33:15;;;;;;;34.50;23.83;;;38.60;89.20;;;;;;5076358;28;20224;-84
2021/07/22 07:35:41;;;;;;;38.03;25.98;;;38.50;89.90;;;;;;5058808;28;20713;-82
2021/07/22 07:38:06;;;;;;;40.50;25.98;;;38.50;88.70;;;;;;5076058;28;20180;-82
2021/07/22 07:40:32;;;;;;;38.20;26.67;;;39.10;89.00;;;;;;5076297;28;20198;-83
2021/07/22 07:42:58;;;;;;;38.60;27.00;;;39.70;86.70;;;;;;5075762;28;20220;-82
2021/07/22 07:45:27;;;;;;;34.97;25.58;;;39.50;86.40;;;;;;5076127;28;20182;-82
2021/07/22 07:47:53;;;;;;;33.97;25.17;;;39.90;85.90;;;;;;5042524;28;20638;-83
2021/07/22 07:50:19;;;;;;;38.83;25.88;;;40.20;85.20;;;;;;5076027;28;20206;-84
2021/07/22 07:52:45;;;;;;;40.15;24.75;;;39.80;84.50;;;;;;5058075;28;20166;-84
2021/07/22 07:55:12;;;;;;;44.17;26.38;;;39.20;86.00;;;;;;5058037;28;20573;-83
2021/07/22 07:57:38;;;;;;;33.45;24.40;;;39.70;85.00;;;;;;5072377;28;20299;-84
2021/07/22 08:00:05;;;;;;;31.20;24.83;;;40.60;83.20;;;;;;5077583;28;20174;-83
2021/07/22 08:02:31;;;;;;;35.58;23.92;;;40.50;82.70;;;;;;5061520;28;20577;-82
2021/07/22 08:04:57;;;;;;;38.33;24.20;;;39.90;83.70;;;;;;5086812;28;20648;-84
2021/07/22 08:07:24;;;;;;;31.73;23.23;;;40.80;80.70;;;;;;5075793;28;20167;-82
2021/07/22 08:09:50;;;;;;;35.03;24.20;;;41.30;79.80;;;;;;5057696;28;20174;-83
2021/07/22 08:12:16;;;;;;;36.20;25.20;;;40.80;78.50;;;;;;5075828;28;20258;-82
2021/07/22 08:14:42;;;;;;;30.58;22.95;;;40.60;79.30;;;;;;5075656;28;20201;-81
2021/07/22 08:17:08;;;;;;;34.75;21.05;;;40.90;80.20;;;;;;5075613;28;20220;-83
2021/07/22 08:19:34;;;;;;;34.78;23.10;;;41.10;80.50;;;;;;5075627;28;20166;-82
2021/07/22 08:22:00;;;;;;;31.00;22.15;;;41.40;79.90;;;;;;5075219;28;20166;-82
2021/07/22 08:24:26;;;;;;;42.47;22.48;;;42.10;79.20;;;;;;5075175;28;20249;-81
2021/07/22 08:26:52;;;;;;;30.55;23.38;;;43.00;77.40;;;;;;5081346;28;20582;-82
2021/07/22 08:29:18;;;;;;;23.58;18.05;;;42.10;76.10;;;;;;5095360;28;20165;-82
2021/07/22 08:31:43;;;;;;;26.42;20.27;;;42.00;76.00;;;;;;5060775;28;20205;-82
2021/07/22 08:34:11;;;;;;;35.47;23.13;;;42.40;75.40;;;;;;5076837;28;20170;-82
2021/07/22 08:36:37;;;;;;;25.90;18.50;;;43.10;74.50;;;;;;5077672;28;20169;-81
2021/07/22 08:39:03;;;;;;;30.95;21.92;;;43.00;74.40;;;;;;5077267;28;20243;-82
2021/07/22 08:41:29;;;;;;;24.55;18.73;;;42.40;74.30;;;;;;5075031;28;20235;-84
2021/07/22 08:43:57;;;;;;;22.95;15.10;;;43.10;73.60;;;;;;5059815;28;20703;-84
2021/07/22 08:46:24;;;;;;;18.50;16.58;;;42.30;71.60;;;;;;5076243;28;20182;-82
2021/07/22 08:48:50;;;;;;;16.45;14.73;;;42.00;73.40;;;;;;5074656;28;20308;-83
2021/07/22 08:51:19;;;;;;;21.17;15.60;;;42.30;71.00;;;;;;5074937;28;20648;-81
2021/07/22 08:53:45;;;;;;;21.88;17.00;;;41.70;73.50;;;;;;5074751;28;20177;-81
2021/07/22 08:56:10;;;;;;;18.08;13.32;;;41.40;72.80;;;;;;5057063;28;20174;-81
2021/07/22 08:58:40;;;;;;;25.92;15.73;;;41.70;72.80;;;;;;5056884;28;20186;-82
2021/07/22 09:01:09;;;;;;;17.88;15.05;;;42.80;70.50;;;;;;5074742;28;20171;-81
2021/07/22 09:03:35;;;;;;;20.23;16.00;;;43.10;69.80;;;;;;5074959;28;20178;-82
2021/07/22 09:06:15;;;;;;;19.88;15.38;;;43.50;70.10;;;;;;5055304;28;20178;-82
2021/07/22 09:08:41;;;;;;;22.02;15.75;;;43.10;69.90;;;;;;5074603;28;20170;-82
2021/07/22 09:11:09;;;;;;;25.13;17.77;;;42.30;71.20;;;;;;5076521;28;20201;-82
2021/07/22 09:13:35;;;;;;;21.20;15.63;;;43.40;70.10;;;;;;5076596;28;20608;-83
2021/07/22 09:16:01;;;;;;;20.55;16.02;;;42.70;71.60;;;;;;5058912;28;20198;-82
2021/07/22 09:18:34;;;;;;;24.10;16.33;;;41.10;73.20;;;;;;5075635;28;20506;-82
2021/07/22 09:21:22;;;;;;;16.17;12.65;;;41.10;73.60;;;;;;5094543;28;20158;-82
2021/07/22 09:24:14;;;;;;;18.08;14.13;;;42.60;71.30;;;;;;5094567;28;20161;-81
2021/07/22 09:26:43;;;;;;;16.65;13.52;;;43.30;71.50;;;;;;5071799;28;20189;-82
2021/07/22 09:29:10;;;;;;;18.50;12.07;;;44.10;70.30;;;;;;5094567;28;20169;-80
2021/07/22 09:31:37;;;;;;;20.35;11.75;;;44.50;67.50;;;;;;5094379;28;20205;-83
2021/07/22 09:34:03;;;;;;;12.13;10.05;;;43.80;68.00;;;;;;5071862;28;20166;-83
2021/07/22 09:36:32;;;;;;;16.48;9.65;;;44.00;67.20;;;;;;5073960;28;20175;-83
2021/07/22 09:39:21;;;;;;;13.10;8.93;;;44.80;65.70;;;;;;5074059;28;20178;-83
2021/07/22 09:42:06;;;;;;;12.65;10.30;;;45.70;65.60;;;;;;5074115;28;20162;-83
2021/07/22 09:44:33;;;;;;;17.50;12.63;;;45.90;65.30;;;;;;5057217;28;20170;-83
2021/07/22 09:47:01;;;;;;;24.45;13.15;;;45.40;65.30;;;;;;5084660;28;20238;-82
2021/07/22 09:49:33;;;;;;;15.63;13.40;;;44.90;66.60;;;;;;5094020;28;20157;-83
2021/07/22 09:52:02;;;;;;;18.30;14.60;;;45.20;66.10;;;;;;5075913;28;20554;-83
2021/07/22 09:54:38;;;;;;;15.05;11.68;;;45.30;64.70;;;;;;5093998;28;20185;-83
2021/07/22 09:57:13;;;;;;;12.13;10.27;;;44.90;64.30;;;;;;5093826;28;20169;-82
2021/07/22 09:59:41;;;;;;;14.43;12.30;;;44.10;65.40;;;;;;5094245;28;20494;-83
2021/07/22 10:02:11;;;;;;;18.17;13.48;;;45.10;65.70;;;;;;5059214;28;20173;-85
2021/07/22 10:04:39;;;;;;;20.83;13.63;;;45.00;64.10;;;;;;5066987;28;20170;-83
2021/07/22 10:07:05;;;;;;;15.05;12.25;;;45.30;65.20;;;;;;5055510;28;20191;-83
2021/07/22 10:09:34;;;;;;;12.48;10.93;;;45.30;66.20;;;;;;5055470;28;20655;-82
2021/07/22 10:12:02;;;;;;;20.05;13.13;;;46.20;65.60;;;;;;5073473;28;20276;-83
2021/07/22 10:14:30;;;;;;;16.52;12.18;;;43.90;64.70;;;;;;5073492;28;20191;-81
2021/07/22 10:17:00;;;;;;;16.50;12.73;;;41.90;68.80;;;;;;5085469;28;20174;-81
2021/07/22 10:19:27;;;;;;;12.15;10.15;;;41.30;69.50;;;;;;5075765;28;20157;-83
2021/07/22 10:21:55;;;;;;;25.30;11.88;;;42.90;67.30;;;;;;5055401;28;20189;-82
2021/07/22 10:24:22;;;;;;;14.27;10.70;;;43.80;65.00;;;;;;5055839;28;20167;-81
2021/07/22 10:26:49;;;;;;;16.48;11.88;;;44.60;66.00;;;;;;5073222;28;20173;-82
2021/07/22 10:29:15;;;;;;;21.98;9.82;;;44.70;63.10;;;;;;5055012;28;20628;-82
2021/07/22 10:31:45;;;;;;;10.13;9.10;;;44.10;63.10;;;;;;5078337;28;20208;-81
2021/07/22 10:34:11;;;;;;;13.10;9.70;;;43.30;64.40;;;;;;5075029;28;20165;-79
2021/07/22 10:36:40;;;;;;;10.45;9.40;;;43.40;66.40;;;;;;5093417;28;20165;-80
2021/07/22 10:39:06;;;;;;;13.30;9.45;;;42.50;66.40;;;;;;5059109;28;20223;-81
2021/07/22 10:41:38;;;;;;;9.60;8.32;;;41.70;68.10;;;;;;5075349;28;20567;-80
2021/07/22 10:44:18;;;;;;;7.25;6.28;;;42.40;64.10;;;;;;5093542;28;20177;-81
2021/07/22 10:46:56;;;;;;;10.70;6.00;;;41.40;66.20;;;;;;5074137;28;20166;-80
2021/07/22 10:49:36;;;;;;;9.85;6.03;;;39.90;67.20;;;;;;5075289;28;20200;-80
2021/07/22 10:52:02;;;;;;;11.23;6.13;;;39.50;70.70;;;;;;5093396;28;20189;-79
2021/07/22 10:54:52;;;;;;;9.48;8.10;;;40.50;68.40;;;;;;5075227;28;20500;-80
2021/07/22 10:57:37;;;;;;;8.88;7.95;;;40.30;68.10;;;;;;5062854;28;20185;-80
2021/07/22 11:00:13;;;;;;;8.73;7.85;;;40.60;69.40;;;;;;5073397;28;20170;-82
2021/07/22 11:02:40;;;;;;;11.95;7.00;;;42.20;70.00;;;;;;5069900;28;20173;-80
2021/07/22 11:05:06;;;;;;;11.25;8.13;;;43.40;67.80;;;;;;5092895;28;20174;-80
2021/07/22 11:07:32;;;;;;;8.07;7.38;;;43.30;65.90;;;;;;5058406;28;20182;-79
2021/07/22 11:09:58;;;;;;;8.48;7.40;;;42.80;67.30;;;;;;5075072;28;20174;-80
2021/07/22 11:12:55;;;;;;;7.15;6.32;;;42.60;67.10;;;;;;5087032;28;20201;-82
2021/07/22 11:15:45;;;;;;;11.77;7.55;;;43.20;66.60;;;;;;5037648;28;20550;-79
2021/07/22 11:18:42;;;;;;;11.82;8.68;;;43.70;66.40;;;;;;5072644;28;20162;-80
2021/07/22 11:21:09;;;;;;;12.23;7.40;;;43.30;66.60;;;;;;5072943;28;20171;-80
2021/07/22 11:23:35;;;;;;;7.53;6.80;;;41.70;70.30;;;;;;5067539;28;20174;-80
2021/07/22 11:26:01;;;;;;;11.20;5.95;;;41.90;69.20;;;;;;5054686;28;20185;-80
2021/07/22 11:28:27;;;;;;;6.78;5.85;;;43.10;68.80;;;;;;5038298;28;20171;-80
2021/07/22 11:31:04;;;;;;;17.05;5.60;;;43.40;66.40;;;;;;5080531;28;20292;-82
2021/07/22 11:33:38;;;;;;;9.25;5.40;;;42.30;67.00;;;;;;5093021;28;20168;-80
2021/07/22 11:36:08;;;;;;;8.32;6.95;;;42.50;65.90;;;;;;5074612;28;20178;-80
2021/07/22 11:38:36;;;;;;;8.70;6.75;;;43.10;65.70;;;;;;5074637;28;20178;-80
2021/07/22 11:41:09;;;;;;;7.35;6.60;;;43.50;64.80;;;;;;5061620;28;20270;-87
2021/07/22 11:43:40;;;;;;;9.07;5.88;;;42.80;65.80;;;;;;5061158;28;20192;-87
2021/07/22 11:46:11;;;;;;;9.70;6.45;;;42.30;65.30;;;;;;5079473;28;20189;-88
2021/07/22 11:48:38;;;;;;;6.82;5.65;;;41.30;66.40;;;;;;5097062;28;20640;-87
2021/07/22 11:51:06;;;;;;;7.13;6.03;;;41.50;68.80;;;;;;5077965;28;20290;-83
2021/07/22 11:53:33;;;;;;;9.20;7.05;;;42.20;68.40;;;;;;5063948;28;20551;-82
2021/07/22 11:56:09;;;;;;;7.15;6.55;;;41.40;68.10;;;;;;5078030;28;20239;-81
2021/07/22 11:58:34;;;;;;;11.75;6.63;;;41.30;70.10;;;;;;5096293;28;20545;-81
2021/07/22 12:01:01;;;;;;;6.55;5.85;;;41.30;68.70;;;;;;5087644;28;20186;-81
2021/07/22 12:03:27;;;;;;;7.72;5.88;;;40.40;68.30;;;;;;5075926;28;20269;-82
2021/07/22 12:05:53;;;;;;;6.95;6.18;;;40.20;68.40;;;;;;5075933;28;20212;-83
2021/07/22 12:08:23;;;;;;;6.40;5.70;;;40.50;68.40;;;;;;5075361;28;20260;-83
2021/07/22 12:10:49;;;;;;;5.95;5.40;;;41.00;67.50;;;;;;5057892;28;20652;-83
2021/07/22 12:13:16;;;;;;;8.90;5.53;;;40.10;68.00;;;;;;5058083;28;20219;-83
2021/07/22 12:15:42;;;;;;;10.27;7.10;;;39.70;69.50;;;;;;5057941;28;20170;-84
2021/07/22 12:18:09;;;;;;;11.88;6.15;;;39.10;69.90;;;;;;5075784;28;20171;-81
2021/07/22 12:20:35;;;;;;;9.45;5.75;;;38.80;71.60;;;;;;5057660;28;20185;-82
2021/07/22 12:23:28;;;;;;;11.73;6.07;;;39.40;70.90;;;;;;5075187;28;20198;-83
2021/07/22 12:26:01;;;;;;;9.70;5.70;;;40.10;71.20;;;;;;5056309;28;20632;-79
2021/07/22 12:28:28;;;;;;;5.50;4.90;;;39.00;70.30;;;;;;5072296;28;20509;-81
2021/07/22 12:30:53;;;;;;;10.43;5.97;;;36.10;76.30;;;;;;5057171;28;20224;-84
2021/07/22 12:33:25;;;;;;;9.93;5.57;;;34.70;80.90;;;;;;5057270;28;20612;-83